Station Average Data Browser -- Wind Gust

October 2016 at Alberni Elementary School

Field Interval Station name YearMonthOptions
Some help is available below.
 Times are PST. Units are: km/hr Using the browser's back button may interfere with the proper operation of this form.

Please use the drop-down lists above to select the data you are interested in.

Year Month Day Hour Count Minimum Average Standard
Deviation
Maximum
This data asText or CSV.
Times mark beginning of averaging interval.
2016100100 58 1.62 4.58 0.55 9.65
2016100101 59 1.62 4.94 0.45 8.06
2016100102 57 1.62 4.88 0.68 11.27
2016100103 54 1.62 2.98 0.37 6.44
2016100104 50 1.62 3.51 0.51 8.06
2016100105 59 1.62 3.16 0.34 6.44
2016100106 55 1.62 2.66 0.31 6.44
2016100107 53 1.62 2.19 0.26 6.44
2016100108 56 1.62 2.67 0.32 4.82
2016100109 55 1.62 2.63 0.33 4.82
2016100110 59 1.62 5.10 0.65 11.27
2016100111 59 1.62 4.69 0.54 8.06
2016100112 59 1.62 3.27 0.32 4.82
2016100113 60 1.62 3.97 0.51 6.44
2016100114 59 1.62 4.63 0.44 6.44
2016100115 60 1.62 3.06 0.37 6.44
2016100116 57 1.62 5.34 0.77 12.89
2016100117 50 1.62 2.54 0.28 4.82
2016100118 41 1.62 2.71 0.32 4.82
2016100119 60 1.62 2.84 0.37 6.44
2016100120 58 1.62 3.55 0.41 6.44
2016100121 59 1.62 2.65 0.33 6.44
2016100122 57 1.62 3.05 0.37 6.44
2016100123 54 1.62 3.64 0.51 6.44
2016100200 60 1.62 4.39 0.45 8.06
2016100201 58 1.62 2.74 0.26 4.82
2016100202 53 1.62 2.70 0.33 6.44
2016100203 60 1.62 3.88 0.26 4.82
2016100204 42 1.62 2.34 0.22 3.20
2016100205 52 1.62 2.44 0.24 4.82
2016100206 43 1.62 2.21 0.26 4.82
2016100207 29 1.62 1.73 0.11 3.20
2016100208 49 1.62 2.01 0.19 3.20
2016100209 58 1.62 5.11 0.62 9.65
2016100210 60 1.62 3.56 0.34 6.44
2016100211 60 1.62 3.80 0.30 6.44
2016100212 59 1.62 4.77 0.60 9.65
2016100213 60 1.62 4.77 0.44 8.06
2016100214 59 1.62 6.71 0.76 16.09
2016100215 60 4.82 10.14 0.75 16.09
2016100216 60 1.62 7.41 0.65 11.27
2016100217 60 1.62 5.31 0.59 9.65
2016100218 57 1.62 4.80 0.53 9.65
2016100219 56 1.62 3.16 0.42 6.44
2016100220 55 1.62 3.42 0.46 6.44
2016100221 53 1.62 3.88 0.40 6.44
2016100222 60 1.62 4.77 0.45 9.65
2016100223 60 1.62 4.02 0.46 6.44
2016100300 52 1.62 3.16 0.57 8.06
2016100301 57 1.62 4.49 0.56 8.06
2016100302 60 1.62 5.58 0.49 8.06
2016100303 59 1.62 3.54 0.34 6.44
2016100304 49 1.62 2.69 0.31 4.82
2016100305 60 1.62 3.75 0.38 6.44
2016100306 56 1.62 2.70 0.40 6.44
2016100307 58 1.62 2.74 0.31 4.82
2016100308 50 1.62 2.60 0.28 4.82
2016100309 55 1.62 2.31 0.31 6.44
2016100310 56 1.62 3.02 0.36 4.82
2016100311 57 1.62 3.41 0.46 6.44
2016100312 57 1.62 2.96 0.41 6.44
2016100313 60 1.62 3.56 0.44 6.44
2016100314 59 1.62 5.32 0.93 17.71
2016100315 58 1.62 4.13 0.83 11.27
2016100316 60 1.62 4.67 0.78 12.89
2016100317 59 1.62 4.31 0.70 11.27
2016100318 55 1.62 2.63 0.26 4.82
2016100319 43 1.62 2.14 0.21 3.20
2016100320 50 1.62 2.73 0.26 6.44
2016100321 55 1.62 3.04 0.33 6.44
2016100322 47 1.62 2.64 0.33 6.44
2016100323 58 1.62 2.58 0.27 4.82
2016100400 55 1.62 2.63 0.23 4.82
2016100401 36 1.62 1.62 0.00 1.62
2016100402 56 1.62 2.16 0.21 3.20
2016100403 57 1.62 2.51 0.26 4.82
2016100404 38 1.62 1.91 0.17 3.20
2016100405 50 1.62 2.45 0.26 4.82
2016100406 60 1.62 2.95 0.33 4.82
2016100407 41 1.62 2.16 0.27 4.82
2016100408 46 1.62 2.41 0.24 4.82
2016100409 53 1.62 2.04 0.20 3.20
2016100410 53 1.62 2.58 0.28 4.82
2016100411 54 1.62 3.19 0.40 6.44
2016100412 60 1.62 3.75 0.55 8.06
2016100413 59 1.62 3.98 0.36 6.44
2016100414 59 1.62 3.98 0.55 8.06
2016100415 59 1.62 4.28 0.49 8.06
2016100416 57 1.62 3.13 0.39 6.44
2016100417 53 1.62 3.04 0.45 8.06
2016100418 59 1.62 5.68 0.83 12.89
2016100419 54 3.20 7.55 0.61 14.47
2016100420 57 1.62 4.15 0.63 11.27
2016100421 55 1.62 2.81 0.30 4.82
2016100422 54 1.62 2.53 0.27 4.82
2016100423 57 1.62 2.65 0.31 6.44
2016100500 59 1.62 2.24 0.23 4.82
2016100501 41 1.62 1.77 0.13 3.20
2016100502 41 1.62 2.08 0.20 3.20
2016100503 41 1.62 1.74 0.12 3.20
2016100504 38 1.62 2.00 0.19 3.20
2016100505 44 1.62 2.16 0.23 4.82
2016100506 59 1.62 2.78 0.31 4.82
2016100507 60 1.62 3.24 0.28 6.44
2016100508 59 1.62 3.92 0.37 6.44
2016100509 58 1.62 3.32 0.30 4.82
2016100510 59 1.62 2.86 0.29 4.82
2016100511 58 1.62 2.74 0.30 6.44
2016100512 60 1.62 4.31 0.41 8.06
2016100513 60 1.62 5.96 0.74 14.47
2016100514 60 4.82 10.22 0.89 16.09
2016100515 60 3.20 9.31 0.74 14.47
2016100516 60 3.20 8.75 0.65 14.47
2016100517 60 1.62 5.36 0.70 12.89
2016100518 47 1.62 2.67 0.28 6.44
2016100519 44 1.62 3.11 0.49 8.06
2016100520 44 1.62 2.78 0.31 6.44
2016100521 39 1.62 2.48 0.28 4.82
2016100522 37 1.62 2.31 0.32 4.82
2016100523 55 1.62 2.28 0.27 4.82
2016100600 51 1.62 2.68 0.38 6.44
2016100601 50 1.62 2.58 0.41 6.44
2016100602 60 1.62 2.55 0.29 4.82
2016100603 60 1.62 2.84 0.30 6.44
2016100604 53 1.62 3.52 0.55 8.06
2016100605 60 1.62 3.24 0.34 6.44
2016100606 59 1.62 4.53 0.54 8.06
2016100607 60 3.20 5.85 0.37 8.06
2016100608 60 3.20 5.74 0.47 9.65
2016100609 60 1.62 4.56 0.48 9.65
2016100610 60 1.62 5.85 0.75 12.89
2016100611 60 3.20 9.76 0.85 16.09
2016100612 60 3.20 10.84 1.05 17.71
2016100613 60 3.20 7.00 0.77 14.47
2016100614 59 1.62 4.25 0.46 8.06
2016100615 60 1.62 3.59 0.50 8.06
2016100616 60 1.62 3.29 0.40 8.06
2016100617 56 1.62 2.59 0.30 4.82
2016100618 59 1.62 4.66 0.67 12.89
2016100619 59 1.62 4.86 0.65 11.27
2016100620 58 1.62 6.08 0.77 12.89
2016100621 60 1.62 7.08 1.05 16.09
2016100622 56 1.62 5.00 0.66 9.65
2016100623 54 1.62 3.15 0.32 4.82
2016100700 60 1.62 5.42 0.60 9.65
2016100701 60 4.82 19.66 3.77 59.54
2016100702 60 8.06 27.65 2.67 49.90
2016100703 60 6.44 32.43 3.00 61.16
2016100704 6012.89 28.56 1.75 41.83
2016100705 6017.71 33.29 1.94 51.52
2016100706 6014.47 28.51 1.81 46.66
2016100707 6011.27 21.70 1.57 37.01
2016100708 6012.89 23.33 1.57 37.01
2016100709 6012.89 23.50 1.57 37.01
2016100710 60 9.65 23.42 1.65 40.25
2016100711 60 9.65 18.48 1.26 33.80
2016100712 60 8.06 19.58 1.42 28.98
2016100713 60 8.06 20.90 1.49 33.80
2016100714 6014.47 23.71 1.39 33.80
2016100715 60 4.82 18.02 1.06 27.36
2016100716 6011.27 18.64 1.27 30.56
2016100717 60 6.44 17.35 1.07 27.36
2016100718 60 3.20 11.19 1.05 20.92
2016100719 60 1.62 4.56 0.65 16.09
2016100720 60 1.62 5.04 0.38 8.06
2016100721 60 1.62 5.36 0.48 8.06
2016100722 59 1.62 4.45 0.55 8.06
2016100723 60 1.62 4.24 0.47 8.06
2016100800 51 1.62 2.52 0.30 4.82
2016100801 57 1.62 4.15 0.39 8.06
2016100802 29 1.62 2.22 0.22 3.20
2016100803 56 1.62 2.84 0.24 4.82
2016100804 56 1.62 2.50 0.29 4.82
2016100805 60 3.20 6.06 0.60 12.89
2016100806 60 3.20 9.26 0.91 20.92
2016100807 60 4.82 9.55 0.55 16.09
2016100808 60 3.20 10.62 0.99 19.30
2016100809 60 1.62 6.55 0.74 12.89
2016100810 60 1.62 6.82 0.78 12.89
2016100811 60 4.82 8.94 0.69 14.47
2016100812 60 3.20 9.18 0.76 16.09
2016100813 59 1.62 4.86 0.50 8.06
2016100814 59 1.62 3.59 0.35 6.44
2016100815 60 1.62 3.67 0.39 8.06
2016100816 56 1.62 3.01 0.32 4.82
2016100817 57 1.62 2.32 0.24 4.82
2016100818 52 1.62 2.29 0.24 4.82
2016100819 54 1.62 2.41 0.24 4.82
2016100820 47 1.62 2.67 0.32 4.82
2016100821 57 1.62 2.48 0.24 4.82
2016100822 50 1.62 2.45 0.27 4.82
2016100823 54 1.62 2.74 0.32 4.82
2016100900 56 1.62 5.55 0.62 9.65
2016100901 60 1.62 4.93 0.44 8.06
2016100902 58 1.62 4.69 0.48 8.06
2016100903 60 4.82 6.66 0.31 9.65
2016100904 54 1.62 4.80 0.46 8.06
2016100905 52 1.62 4.80 0.60 9.65
2016100906 60 4.82 6.25 0.38 8.06
2016100907 60 1.62 5.34 0.57 9.65
2016100908 60 1.62 5.66 0.58 11.27
2016100909 60 1.62 5.12 0.56 9.65
2016100910 59 1.62 3.68 0.42 6.44
2016100911 60 1.62 4.05 0.48 8.06
2016100912 60 3.20 8.27 0.88 17.71
2016100913 60 3.20 10.14 1.31 20.92
2016100914 60 9.65 17.19 1.13 24.16
2016100915 60 8.06 17.65 1.13 27.36
2016100916 60 8.06 16.15 1.24 27.36
2016100917 60 6.44 13.92 1.11 25.74
2016100918 60 3.20 9.12 1.00 19.30
2016100919 58 1.62 3.03 0.56 9.65
2016100920 55 1.62 3.80 0.45 8.06
2016100921 55 1.62 3.60 0.50 8.06
2016100922 59 1.62 3.41 0.46 8.06
2016100923 56 1.62 3.56 0.44 8.06
2016101000 58 1.62 3.49 0.46 8.06
2016101001 60 1.62 4.15 0.46 8.06
2016101002 60 1.62 5.93 0.45 9.65
2016101003 60 1.62 4.91 0.47 8.06
2016101004 59 1.62 2.94 0.32 6.44
2016101005 53 1.62 3.00 0.36 6.44
2016101006 54 1.62 3.60 0.45 6.44
2016101007 60 3.20 5.31 0.31 8.06
2016101008 60 3.20 6.36 0.35 9.65
2016101009 60 1.62 4.64 0.55 8.06
2016101010 56 1.62 3.39 0.52 8.06
2016101011 60 1.62 5.20 0.57 11.27
2016101012 60 3.20 8.69 0.58 14.47
2016101013 60 4.82 14.46 1.22 25.74
2016101014 60 6.44 18.29 1.09 25.74
2016101015 60 9.65 19.34 1.18 28.98
2016101016 60 8.06 18.16 1.37 32.18
2016101017 60 9.65 17.57 0.95 22.54
2016101018 60 9.65 15.29 0.90 24.16
2016101019 57 1.62 5.48 0.91 14.47
2016101020 60 3.20 7.00 0.68 16.09
2016101021 54 1.62 2.59 0.34 6.44
2016101022 32 1.62 2.22 0.24 4.82
2016101023 57 1.62 2.88 0.34 6.44
2016101100 46 1.62 3.00 0.29 4.82
2016101101 53 1.62 2.91 0.30 4.82
2016101102 49 1.62 3.74 0.51 9.65
2016101103 48 1.62 3.35 0.34 4.82
2016101104 54 1.62 3.34 0.39 6.44
2016101105 54 1.62 3.93 0.56 8.06
2016101106 60 1.62 3.96 0.41 6.44
2016101107 57 1.62 5.25 0.55 9.65
2016101108 60 1.62 4.75 0.45 8.06
2016101109 60 1.62 3.67 0.31 6.44
2016101110 60 1.62 4.29 0.51 9.65
2016101111 59 1.62 5.84 0.63 11.27
2016101112 60 1.62 6.84 0.74 14.47
2016101113 60 8.06 17.99 1.07 25.74
2016101114 60 8.06 15.29 0.95 22.54
2016101115 6011.27 17.78 1.07 27.36
2016101116 60 6.44 15.91 1.50 35.39
2016101117 60 8.06 14.11 1.00 22.54
2016101118 60 4.82 13.66 1.04 22.54
2016101119 60 3.20 7.24 1.09 20.92
2016101120 58 1.62 3.41 0.50 9.65
2016101121 50 1.62 2.35 0.24 4.82
2016101122 39 1.62 2.81 0.36 4.82
2016101123 52 1.62 3.24 0.34 6.44
2016101200 52 1.62 2.54 0.34 6.44
2016101201 53 1.62 2.52 0.24 4.82
2016101202 55 1.62 3.42 0.37 6.44
2016101203 58 1.62 3.69 0.43 8.06
2016101204 60 1.62 4.18 0.38 8.06
2016101205 60 1.62 5.47 0.44 8.06
2016101206 59 1.62 4.25 0.55 9.65
2016101207 60 3.20 5.20 0.39 9.65
2016101208 60 1.62 6.17 0.42 9.65
2016101209 56 1.62 4.40 0.56 8.06
2016101210 58 1.62 3.47 0.51 8.06
2016101211 59 1.62 3.62 0.37 8.06
2016101212 60 1.62 5.74 0.56 9.65
2016101213 60 1.62 5.45 0.69 12.89
2016101214 60 1.62 5.58 0.68 9.65
2016101215 60 1.62 4.21 0.35 6.44
2016101216 60 1.62 4.56 0.32 6.44
2016101217 59 1.62 4.09 0.36 6.44
2016101218 46 1.62 2.80 0.36 6.44
2016101219 53 1.62 2.70 0.29 4.82
2016101220 45 1.62 3.00 0.36 4.82
2016101221 53 1.62 2.31 0.27 4.82
2016101222 32 1.62 1.92 0.17 3.20
2016101223 54 1.62 2.59 0.29 4.82
2016101300 55 1.62 2.95 0.33 4.82
2016101301 57 1.62 2.54 0.26 4.82
2016101302 51 1.62 3.78 0.50 9.65
2016101303 57 1.62 3.08 0.40 8.06
2016101304 58 1.62 3.05 0.38 6.44
2016101305 50 1.62 2.83 0.32 6.44
2016101306 57 1.62 2.74 0.31 4.82
2016101307 53 1.62 3.61 0.35 6.44
2016101308 51 1.62 2.40 0.26 4.82
2016101309 60 1.62 3.05 0.33 4.82
2016101310 60 1.62 5.50 0.59 9.65
2016101311 60 1.62 6.76 0.53 9.65
2016101312 60 3.20 7.43 0.61 11.27
2016101313 60 4.82 8.56 0.64 12.89
2016101314 60 1.62 6.03 0.73 11.27
2016101315 59 1.62 3.76 0.49 8.06
2016101316 60 1.62 15.15 1.65 27.36
2016101317 6011.27 19.93 1.07 30.56
2016101318 60 3.20 18.42 1.45 30.56
2016101319 60 3.20 11.94 1.42 24.16
2016101320 60 3.20 18.61 2.67 41.83
2016101321 60 1.62 10.46 1.46 24.16
2016101322 60 1.62 9.36 1.11 24.16
2016101323 60 6.44 20.39 3.58 51.52
2016101400 60 9.65 22.42 2.17 48.28
2016101401 6014.47 33.74 2.86 53.10
2016101402 6011.27 34.12 2.96 61.16
2016101403 60 8.06 20.57 1.97 45.07
2016101404 60 6.44 16.15 1.78 30.56
2016101405 60 3.20 11.80 1.62 35.39
2016101406 60 3.20 7.14 0.76 16.09
2016101407 60 3.20 9.69 0.85 20.92
2016101408 60 1.62 9.79 1.04 17.71
2016101409 60 3.20 8.51 0.86 16.09
2016101410 60 3.20 7.08 0.77 17.71
2016101411 60 4.82 10.87 1.27 27.36
2016101412 60 1.62 11.80 1.69 38.63
2016101413 60 6.44 16.79 1.53 30.56
2016101414 60 3.20 11.00 1.41 24.16
2016101415 60 1.62 7.78 0.83 14.47
2016101416 60 3.20 8.45 0.98 17.71
2016101417 60 3.20 18.37 1.29 27.36
2016101418 60 9.65 19.02 1.70 32.18
2016101419 60 3.20 14.81 1.51 33.80
2016101420 60 8.06 17.19 1.48 28.98
2016101421 60 8.06 16.50 1.23 28.98
2016101422 60 1.62 10.33 1.10 17.71
2016101423 60 3.20 13.06 1.23 22.54
2016101500 59 1.62 6.06 0.96 14.47
2016101501 60 1.62 4.26 0.58 9.65
2016101502 57 1.62 3.22 0.42 6.44
2016101503 53 1.62 3.37 0.38 6.44
2016101504 50 1.62 2.26 0.30 6.44
2016101505 59 1.62 3.48 0.32 6.44
2016101506 51 1.62 2.56 0.33 6.44
2016101507 44 1.62 2.02 0.24 4.82
2016101508 57 1.62 2.45 0.25 4.82
2016101509 49 1.62 2.30 0.24 4.82
2016101510 59 1.62 6.08 1.16 16.09
2016101511 60 4.82 10.28 1.14 17.71
2016101512 60 3.20 9.71 0.89 17.71
2016101513 60 1.62 9.20 1.09 19.30
2016101514 60 3.20 9.28 1.04 19.30
2016101515 60 1.62 13.73 1.75 30.56
2016101516 60 1.62 14.35 2.05 32.18
2016101517 60 4.82 11.35 1.31 20.92
2016101518 60 8.06 22.66 2.24 41.83
2016101519 60 6.44 18.88 2.05 32.18
2016101520 60 6.44 12.12 1.08 24.16
2016101521 60 6.44 23.60 3.07 51.52
2016101522 6014.47 28.73 1.69 43.45
2016101523 60 6.44 16.20 1.37 28.98
2016101600 60 1.62 10.49 1.14 19.30
2016101601 60 1.62 5.12 0.93 16.09
2016101602 60 1.62 6.17 0.79 11.27
2016101603 60 1.62 5.85 0.78 12.89
2016101604 60 1.62 4.18 0.57 9.65
2016101605 60 1.62 5.45 0.65 9.65
2016101606 43 1.62 3.89 0.83 14.47
2016101607 60 1.62 7.40 0.94 17.71
2016101608 60 3.20 9.74 0.79 17.71
2016101609 60 3.20 8.48 0.72 14.47
2016101610 60 1.62 6.81 0.98 12.89
2016101611 60 3.20 11.67 1.55 24.16
2016101612 60 3.20 10.76 1.16 24.16
2016101613 60 1.62 7.59 1.52 19.30
2016101614 60 3.20 8.08 0.76 16.09
2016101615 60 1.62 8.21 1.17 22.54
2016101616 56 1.62 4.97 0.71 12.89
2016101617 55 1.62 3.01 0.37 6.44
2016101618 56 1.62 2.53 0.26 6.44
2016101619 51 1.62 3.28 0.56 9.65
2016101620 39 1.62 3.13 0.43 6.44
2016101621 56 1.62 3.16 0.35 6.44
2016101622 56 1.62 2.61 0.27 4.82
2016101623 45 1.62 2.08 0.20 3.20
2016101700 36 1.62 2.02 0.19 3.20
2016101701 38 1.62 2.04 0.20 3.20
2016101702 59 1.62 3.16 0.31 4.82
2016101703 35 1.62 2.07 0.20 3.20
2016101704 30 1.62 1.67 0.08 3.20
2016101705 22 1.62 1.62 0.00 1.62
2016101706 52 1.62 2.11 0.21 3.20
2016101707 43 1.62 1.62 0.00 1.62
2016101708 58 1.62 1.92 0.17 3.20
2016101709 39 1.62 2.07 0.20 3.20
2016101710 54 1.62 2.74 0.34 6.44
2016101711 60 1.62 5.09 0.40 8.06
2016101712 58 1.62 3.63 0.49 6.44
2016101713 60 1.62 4.50 0.57 9.65
2016101714 60 6.44 13.92 1.18 27.36
2016101715 60 1.62 5.36 0.80 14.47
2016101716 60 1.62 9.52 0.98 17.71
2016101717 60 4.82 10.89 1.05 19.30
2016101718 58 1.62 5.91 1.02 14.47
2016101719 57 1.62 3.38 0.35 6.44
2016101720 56 1.62 2.87 0.37 6.44
2016101721 45 1.62 2.11 0.21 3.20
2016101722 25 1.62 1.94 0.18 3.20
2016101723 37 1.62 2.09 0.20 3.20
2016101800 51 1.62 2.68 0.23 4.82
2016101801 56 1.62 3.50 0.24 4.82
2016101802 56 1.62 3.04 0.32 4.82
2016101803 45 1.62 2.72 0.35 4.82
2016101804 55 1.62 2.37 0.24 4.82
2016101805 56 1.62 2.44 0.24 4.82
2016101806 54 1.62 4.47 0.53 8.06
2016101807 56 1.62 3.79 0.51 8.06
2016101808 45 1.62 2.15 0.21 3.20
2016101809 58 1.62 2.14 0.21 3.20
2016101810 58 1.62 3.02 0.36 6.44
2016101811 60 3.20 4.77 0.34 8.06
2016101812 60 1.62 6.01 0.79 16.09
2016101813 60 1.62 4.02 0.49 8.06
2016101814 60 1.62 5.93 0.75 16.09
2016101815 58 1.62 6.75 0.91 12.89
2016101816 45 3.20 9.66 1.47 22.54
2016101817 60 3.20 11.91 1.37 24.16
2016101818 60 1.62 5.34 0.87 12.89
2016101819 58 1.62 4.58 0.80 11.27
2016101820 60 1.62 3.88 0.45 8.06
2016101821 60 3.20 6.04 0.62 11.27
2016101822 55 1.62 3.42 0.32 6.44
2016101823 53 1.62 3.34 0.34 4.82
2016101900 56 1.62 2.90 0.25 4.82
2016101901 37 1.62 1.92 0.17 3.20
2016101902 51 1.62 2.87 0.36 6.44
2016101903 52 1.62 4.46 0.51 8.06
2016101904 57 1.62 2.82 0.27 4.82
2016101905 60 1.62 4.61 0.34 6.44
2016101906 57 1.62 3.30 0.44 8.06
2016101907 57 1.62 3.24 0.37 6.44
2016101908 59 1.62 4.50 0.33 6.44
2016101909 52 1.62 3.06 0.38 6.44
2016101910 51 1.62 2.34 0.24 4.82
2016101911 41 1.62 2.32 0.22 3.20
2016101912 55 1.62 2.92 0.34 4.82
2016101913 60 1.62 3.51 0.43 8.06
2016101914 59 1.62 3.85 0.62 9.65
2016101915 59 1.62 2.67 0.33 6.44
2016101916 49 1.62 2.92 0.31 4.82
2016101917 57 1.62 3.19 0.40 6.44
2016101918 59 1.62 2.94 0.38 6.44
2016101919 46 1.62 2.55 0.33 6.44
2016101920 49 1.62 2.53 0.29 4.82
2016101921 39 1.62 2.07 0.20 3.20
2016101922 47 1.62 1.76 0.16 4.82
2016101923 58 1.62 2.97 0.36 6.44
2016102000 59 1.62 2.40 0.30 6.44
2016102001 58 1.62 3.96 0.46 8.06
2016102002 58 1.62 3.13 0.37 6.44
2016102003 55 1.62 3.01 0.28 4.82
2016102004 60 1.62 3.38 0.37 6.44
2016102005 41 1.62 2.47 0.24 4.82
2016102006 39 1.62 2.19 0.28 6.44
2016102007 59 1.62 4.17 0.66 11.27
2016102008 59 1.62 6.22 0.56 9.65
2016102009 58 1.62 4.60 0.61 9.65
2016102010 60 3.20 13.92 1.53 25.74
2016102011 60 8.06 12.85 0.87 19.30
2016102012 60 4.82 13.39 1.27 24.16
2016102013 60 9.65 17.25 1.07 25.74
2016102014 60 8.06 17.44 1.29 27.36
2016102015 6011.27 21.54 1.41 30.56
2016102016 60 8.06 17.19 1.43 30.56
2016102017 60 6.44 16.63 0.93 24.16
2016102018 60 1.62 8.93 1.17 19.30
2016102019 60 1.62 5.93 0.74 14.47
2016102020 59 1.62 4.74 0.56 9.65
2016102021 60 3.20 7.30 0.62 12.89
2016102022 53 1.62 4.53 0.57 8.06
2016102023 52 1.62 3.71 0.48 8.06
2016102100 52 1.62 4.43 0.63 9.65
2016102101 60 1.62 4.42 0.44 8.06
2016102102 58 1.62 3.80 0.51 9.65
2016102103 60 1.62 3.89 0.57 9.65
2016102104 56 1.62 4.19 0.51 8.06
2016102105 60 1.62 3.62 0.48 9.65
2016102106 43 1.62 2.32 0.28 4.82
2016102107 57 1.62 4.37 0.44 8.06
2016102108 60 1.62 6.20 0.69 17.71
2016102109 60 1.62 6.39 0.69 16.09
2016102110 60 3.20 8.29 0.75 16.09
2016102111 58 1.62 4.72 0.66 9.65
2016102112 58 1.62 3.88 0.52 8.06
2016102113 58 1.62 3.16 0.38 8.06
2016102114 57 1.62 3.81 0.53 8.06
2016102115 58 1.62 9.02 1.03 17.71
2016102116 59 3.20 8.95 1.11 17.71
2016102117 60 1.62 5.18 0.61 9.65
2016102118 56 1.62 2.67 0.35 4.82
2016102119 48 1.62 2.51 0.27 4.82
2016102120 55 1.62 2.95 0.37 6.44
2016102121 46 1.62 2.52 0.26 4.82
2016102122 58 1.62 2.36 0.25 4.82
2016102123 39 1.62 2.23 0.24 4.82
2016102200 34 1.62 1.76 0.13 3.20
2016102201 34 1.62 2.33 0.41 6.44
2016102202 50 1.62 2.57 0.31 4.82
2016102203 24 1.62 1.82 0.15 3.20
2016102204 60 1.62 3.00 0.34 6.44
2016102205 45 1.62 2.79 0.29 4.82
2016102206 58 1.62 3.16 0.32 4.82
2016102207 57 1.62 3.44 0.37 6.44
2016102208 58 1.62 3.16 0.39 6.44
2016102209 58 1.62 3.52 0.39 6.44
2016102210 55 1.62 2.78 0.34 4.82
2016102211 59 1.62 3.35 0.51 8.06
2016102212 55 1.62 2.87 0.49 11.27
2016102213 59 1.62 3.65 0.40 6.44
2016102214 60 1.62 5.42 0.40 9.65
2016102215 60 1.62 9.01 1.47 22.54
2016102216 60 3.20 10.49 1.21 20.92
2016102217 60 1.62 11.11 1.50 20.92
2016102218 60 1.62 5.93 0.65 9.65
2016102219 59 1.62 5.57 0.67 9.65
2016102220 59 1.62 4.12 0.55 9.65
2016102221 57 1.62 2.93 0.30 6.44
2016102222 56 1.62 1.96 0.18 3.20
2016102223 44 1.62 2.20 0.25 4.82
2016102300 46 1.62 2.49 0.33 6.44
2016102301 50 1.62 2.64 0.31 4.82
2016102302 49 1.62 3.18 0.38 6.44
2016102303 48 1.62 3.39 0.59 8.06
2016102304 58 1.62 4.36 0.55 8.06
2016102305 56 1.62 4.74 0.39 8.06
2016102306 56 1.62 2.96 0.44 6.44
2016102307 45 1.62 1.97 0.18 3.20
2016102308 47 1.62 2.50 0.34 6.44
2016102309 50 1.62 2.26 0.28 4.82
2016102310 60 1.62 2.71 0.37 6.44
2016102311 60 1.62 3.35 0.34 6.44
2016102312 60 1.62 4.91 0.53 8.06
2016102313 60 1.62 5.98 0.54 9.65
2016102314 60 1.62 10.41 1.61 20.92
2016102315 60 4.82 16.09 1.05 24.16
2016102316 60 4.82 11.62 1.03 20.92
2016102317 60 1.62 9.63 1.00 19.30
2016102318 60 3.20 8.96 0.91 17.71
2016102319 60 1.62 5.77 0.81 12.89
2016102320 57 1.62 6.61 1.15 16.09
2016102321 42 1.62 2.61 0.34 4.82
2016102322 58 1.62 3.83 0.57 12.89
2016102323 59 1.62 5.92 0.95 14.47
2016102400 60 1.62 5.69 0.62 11.27
2016102401 60 1.62 6.12 0.67 14.47
2016102402 58 1.62 4.25 0.66 9.65
2016102403 57 1.62 2.48 0.28 4.82
2016102404 54 1.62 3.52 0.48 8.06
2016102405 60 1.62 4.21 0.56 11.27
2016102406 60 1.62 12.13 2.20 30.56
2016102407 60 6.44 10.38 0.84 17.71
2016102408 60 1.62 5.90 0.81 14.47
2016102409 60 1.62 9.71 1.75 27.36
2016102410 57 1.62 3.22 0.45 6.44
2016102411 51 1.62 3.81 0.42 8.06
2016102412 58 1.62 2.91 0.45 6.44
2016102413 53 1.62 4.95 0.83 11.27
2016102414 60 1.62 6.68 0.76 12.89
2016102415 60 1.62 5.74 0.70 12.89
2016102416 60 1.62 5.90 0.57 9.65
2016102417 58 1.62 3.58 0.53 8.06
2016102418 58 1.62 3.72 0.52 8.06
2016102419 60 1.62 5.07 0.56 11.27
2016102420 53 1.62 3.19 0.46 6.44
2016102421 56 1.62 3.45 0.52 8.06
2016102422 54 1.62 4.83 0.72 11.27
2016102423 57 1.62 3.87 0.60 9.65
2016102500 53 1.62 4.47 0.65 9.65
2016102501 1 1.62 1.62 MD 1.62
2016102502 56 1.62 2.64 0.31 6.44
2016102503 59 1.62 3.52 0.38 6.44
2016102504 58 1.62 4.35 0.53 8.06
2016102505 60 1.62 4.24 0.51 8.06
2016102506 58 1.62 3.85 0.41 6.44
2016102507 60 1.62 5.26 0.67 9.65
2016102508 59 1.62 8.13 1.07 16.09
2016102509 60 3.20 8.18 0.95 14.47
2016102510 60 1.62 6.79 0.72 12.89
2016102511 57 1.62 3.61 0.46 6.44
2016102512 60 3.20 6.04 0.58 11.27
2016102513 60 3.20 8.93 0.94 16.09
2016102514 60 3.20 7.49 1.00 22.54
2016102515 60 3.20 9.07 0.89 19.30
2016102516 60 3.20 9.69 0.95 19.30
2016102517 60 3.20 7.40 0.75 14.47
2016102518 60 1.62 7.25 0.64 11.27
2016102519 60 3.20 9.47 0.79 16.09
2016102520 60 1.62 7.27 0.96 12.89
2016102521 60 1.62 4.99 0.72 9.65
2016102522 60 1.62 3.41 0.56 8.06
2016102523 45 1.62 2.33 0.32 4.82
2016102600 53 1.62 3.61 0.61 9.65
2016102601 50 1.62 3.50 0.38 6.44
2016102602 54 1.62 2.95 0.33 4.82
2016102603 51 1.62 2.68 0.33 4.82
2016102604 60 1.62 4.02 0.38 8.06
2016102605 55 1.62 2.17 0.23 4.82
2016102606 53 1.62 2.79 0.40 6.44
2016102607 56 1.62 2.76 0.37 6.44
2016102608 59 1.62 4.36 0.53 9.65
2016102609 60 1.62 13.36 1.60 25.74
2016102610 60 6.44 23.23 2.11 38.63
2016102611 60 9.65 25.16 1.44 37.01
2016102612 60 9.65 22.69 1.90 41.83
2016102613 60 6.44 18.00 2.00 35.39
2016102614 60 1.62 10.33 1.49 28.98
2016102615 60 1.62 5.01 0.83 16.09
2016102616 60 1.62 5.79 1.23 20.92
2016102617 60 1.62 8.29 0.71 17.71
2016102618 60 3.20 6.44 0.57 9.65
2016102619 60 1.62 6.17 0.60 11.27
2016102620 60 3.20 13.39 1.81 28.98
2016102621 60 3.20 11.80 1.33 24.16
2016102622 60 1.62 10.57 1.74 32.18
2016102623 60 3.20 15.34 2.00 37.01
2016102700 60 9.65 21.24 1.75 35.39
2016102701 60 8.06 21.46 2.02 40.25
2016102702 60 6.44 18.35 1.54 32.18
2016102703 60 6.44 19.39 2.04 33.80
2016102704 60 1.62 11.54 1.42 24.16
2016102705 60 1.62 11.99 1.25 24.16
2016102706 60 1.62 8.70 0.82 16.09
2016102707 60 1.62 10.28 1.15 20.92
2016102708 60 1.62 5.20 0.51 8.06
2016102709 60 1.62 4.80 0.64 9.65
2016102710 60 1.62 12.10 1.44 24.16
2016102711 60 6.44 12.53 0.93 20.92
2016102712 60 4.82 9.39 0.67 14.47
2016102713 60 1.62 4.05 0.44 8.06
2016102714 60 1.62 4.47 0.48 9.65
2016102715 60 1.62 5.53 0.67 9.65
2016102716 58 1.62 3.30 0.42 6.44
2016102717 60 1.62 3.24 0.34 6.44
2016102718 58 1.62 2.63 0.28 4.82
2016102719 40 1.62 3.22 0.44 6.44
2016102720 38 1.62 2.33 0.30 6.44
2016102721 52 1.62 2.48 0.30 4.82
2016102722 60 1.62 3.21 0.35 6.44
2016102723 48 1.62 2.38 0.22 3.20
2016102800 58 1.62 3.55 0.39 6.44
2016102801 55 1.62 4.15 0.57 9.65
2016102802 44 1.62 3.00 0.44 6.44
2016102803 49 1.62 2.86 0.35 6.44
2016102804 55 1.62 3.63 0.43 6.44
2016102805 57 1.62 3.16 0.41 6.44
2016102806 52 1.62 2.91 0.35 6.44
2016102807 58 1.62 3.89 0.64 11.27
2016102808 54 1.62 3.04 0.37 4.82
2016102809 60 1.62 4.53 0.54 8.06
2016102810 60 3.20 5.20 0.35 8.06
2016102811 60 3.20 6.01 0.43 9.65
2016102812 60 3.20 7.14 0.62 12.89
2016102813 60 3.20 6.20 0.45 9.65
2016102814 60 3.20 6.63 0.49 9.65
2016102815 60 1.62 5.80 0.48 9.65
2016102816 56 1.62 3.50 0.35 6.44
2016102817 58 1.62 2.91 0.33 4.82
2016102818 44 1.62 2.45 0.22 3.20
2016102819 54 1.62 3.10 0.37 4.82
2016102820 52 1.62 2.42 0.30 4.82
2016102821 49 1.62 2.86 0.37 6.44
2016102822 58 1.62 3.02 0.38 6.44
2016102823 56 1.62 3.05 0.47 8.06
2016102900 54 1.62 3.63 0.44 6.44
2016102901 52 1.62 2.87 0.31 4.82
2016102902 46 1.62 2.17 0.23 4.82
2016102903 58 1.62 2.69 0.24 4.82
2016102904 60 1.62 4.24 0.53 9.65
2016102905 53 1.62 4.43 0.61 9.65
2016102906 53 1.62 4.25 0.44 8.06
2016102907 53 1.62 2.95 0.45 6.44
2016102908 48 1.62 2.65 0.34 4.82
2016102909 55 1.62 3.04 0.40 6.44
2016102910 57 1.62 3.36 0.48 8.06
2016102911 45 1.62 2.22 0.25 4.82
2016102912 58 1.62 3.63 0.45 6.44
2016102913 60 1.62 5.28 0.50 9.65
2016102914 60 1.62 7.91 1.05 20.92
2016102915 60 3.20 11.83 1.22 22.54
2016102916 60 3.20 10.28 1.05 20.92
2016102917 56 1.62 6.38 1.16 19.30
2016102918 57 1.62 5.96 0.78 12.89
2016102919 55 1.62 3.74 0.48 8.06
2016102920 58 1.62 3.32 0.40 6.44
2016102921 50 1.62 2.35 0.27 6.44
2016102922 40 1.62 2.70 0.44 6.44
2016102923 49 1.62 3.48 0.46 6.44
2016103000 49 1.62 2.40 0.30 4.82
2016103001 60 1.62 4.88 0.45 8.06
2016103002 54 1.62 3.04 0.38 6.44
2016103003 54 1.62 3.75 0.47 8.06
2016103004 52 1.62 3.24 0.27 4.82
2016103005 57 1.62 3.81 0.38 6.44
2016103006 60 1.62 2.92 0.25 4.82
2016103007 60 3.20 6.25 0.49 9.65
2016103008 57 1.62 6.22 0.56 11.27
2016103009 56 1.62 3.30 0.47 6.44
2016103010 54 1.62 2.80 0.46 6.44
2016103011 60 1.62 6.71 0.43 9.65
2016103012 60 1.62 5.50 0.43 9.65
2016103013 60 1.62 5.52 0.61 11.27
2016103014 60 1.62 10.01 1.05 19.30
2016103015 60 1.62 5.77 0.53 12.89
2016103016 59 1.62 3.73 0.36 6.44
2016103017 60 1.62 3.02 0.28 4.82
2016103018 56 1.62 2.50 0.25 4.82
2016103019 32 1.62 2.12 0.24 4.82
2016103020 37 1.62 1.88 0.16 3.20
2016103021 41 1.62 2.16 0.21 3.20
2016103022 55 1.62 2.86 0.33 6.44
2016103023 37 1.62 1.83 0.15 3.20
2016103100 57 1.62 2.23 0.22 3.20
2016103101 36 1.62 2.46 0.22 3.20
2016103102 47 1.62 1.99 0.19 3.20
2016103103 49 1.62 1.75 0.12 3.20
2016103104 47 1.62 1.86 0.16 3.20
2016103105 38 1.62 1.83 0.15 3.20
2016103106 52 1.62 2.41 0.28 4.82
2016103107 56 1.62 2.41 0.24 4.82
2016103108 44 1.62 1.84 0.15 3.20
2016103109 50 1.62 2.35 0.22 3.20
2016103110 52 1.62 2.17 0.21 3.20
2016103111 47 1.62 2.84 0.31 4.82
2016103112 60 1.62 5.04 0.93 16.09
2016103113 60 4.82 12.74 1.28 24.16
2016103114 60 4.82 12.69 1.10 22.54
2016103115 60 4.82 12.74 1.02 20.92
2016103116 47 6.44 11.13 0.94 24.16
2016103117 41 1.62 7.74 0.99 16.09
2016103118 60 1.62 5.42 0.57 9.65
2016103119 60 1.62 5.98 0.68 11.27
2016103120 59 1.62 4.45 0.62 8.06
2016103121 54 1.62 4.92 0.87 16.09
2016103122 60 1.62 4.91 0.52 8.06
2016103123 58 1.62 5.47 0.77 11.27

Help for this page.

Use the drop-down lists to set the variables for the field, station and month you are interested in. Be sure to specify which averaging interval you prefer (hourly or daily). Once you've selected a month the data will load. If you want an entire year of data click the "Show Entire Year" check box. The data will be loaded from the database and shown in a table on the page. The data are also available as text and CSV files. The links to these files are (will be) given in the table header. Please be patient while the data loads and the graph draws it.

Data is collected minute-by-minute on the network (at almost every site) so hourly averages are usually made from 60 observations and daily averages are composed of 1440 observations. Where raw data is missing the count column will show the reduced number of observations. Where there is no data at all in the averaging period the time interval will be blank.

Note for hourly and daily statistics of rainfall: The weather station hardware zeroes the daily rain amount each day immediately after 00:01. This means that the previous day's rain amount is recorded in the first minute of the day. At this time we choose to correct for this in the hourly statistics by the method outlined below.

If the hour is the first hour of the day, the minimum, average, and maximum rain amount for that day is calculated using the last fifty minutes of the hour. For every other hour of the day all available data—up to 60 values—is used. This can affect minimum and average rain amounts calculated for first hour of the day only. Maximum rain amount recording in the interval is not affected.

Daily rain is treated the same way. The first ten minutes of the day are ignored when calculating minumum, average, and maximum daily rain.

Minute by minute daily rain accumulation is available from the station data page.

Snow and ice in the rain collection funnel is not recorded until it melts.

The plot is live. You can zoom in by clicking and dragging a mouse over the graph. You can zoom back out by double-clicking on the graph. Moving the mouse cursor over the graph will highlight the value nearest to the mouse. If you want to smooth the data change the value in the lower left of the graph. It gives the number of consecutive data points that should be averaged together before the curve is drawn.

This page took 7.863 s to generate.

Disclaimer:

The Vancouver Island School-Based Weather Station Network is an education first project. Data from the network are made freely available as is to the public with no guarantee of accuracy or availability. Commercial use requires a license. Please contact Ed Wiebe, ecwiebe at uvic.ca for more information. This work (this site and all contents not otherwise attributed) by School-Based Weather Station Network is licensed under a Creative Commons Attribution-NonCommercial-ShareAlike 4.0 International License.
Creative Commons License

Valid HTML 5
Powered By UVic EOSC
Last Modified: October 03 2023 15:37:52.